createdAt,value
2022-10-04T00:02:02.597Z,9.75
2022-10-04T00:04:39.746Z,10.25
2022-10-04T00:07:13.754Z,9.75
2022-10-04T00:09:46.772Z,9.50
2022-10-04T00:12:41.135Z,10.75
2022-10-04T00:15:27.362Z,8.00
2022-10-04T00:18:24.548Z,10.00
2022-10-04T00:20:53.519Z,8.75
2022-10-04T00:23:31.671Z,9.00
2022-10-04T00:26:00.035Z,7.25
2022-10-04T00:28:26.989Z,9.00
2022-10-04T00:31:18.031Z,9.00
2022-10-04T00:33:49.694Z,9.00
2022-10-04T00:36:25.501Z,10.00
2022-10-04T00:39:05.156Z,7.00
2022-10-04T00:41:39.568Z,8.50
2022-10-04T00:44:06.637Z,8.00
2022-10-04T00:46:33.581Z,11.00
2022-10-04T00:49:02.176Z,8.00
2022-10-04T00:51:34.827Z,8.00
2022-10-04T00:54:07.422Z,8.25
2022-10-04T00:56:41.531Z,8.50
2022-10-04T00:59:53.033Z,8.50
2022-10-04T01:02:32.239Z,9.00
2022-10-04T01:05:02.359Z,8.00
2022-10-04T01:07:54.727Z,9.00
2022-10-04T01:10:49.174Z,8.00
2022-10-04T01:13:51.814Z,8.50
2022-10-04T01:16:48.300Z,8.50
2022-10-04T01:19:41.222Z,9.00
2022-10-04T01:22:54.036Z,8.00
2022-10-04T01:25:43.269Z,9.00
2022-10-04T01:28:10.310Z,8.00
2022-10-04T01:30:37.266Z,8.00
2022-10-04T01:33:07.150Z,8.25
2022-10-04T01:35:35.641Z,7.50
2022-10-04T01:38:09.186Z,9.25
2022-10-04T01:40:36.770Z,7.00
2022-10-04T01:43:06.912Z,8.67
2022-10-04T01:45:38.702Z,8.33
2022-10-04T01:48:16.433Z,9.00
2022-10-04T01:50:59.458Z,7.00
2022-10-04T01:53:30.507Z,7.00
2022-10-04T01:56:05.589Z,7.25
2022-10-04T01:58:58.784Z,7.00
2022-10-04T02:01:33.369Z,8.00
2022-10-04T02:04:06.034Z,7.50
2022-10-04T02:06:38.344Z,7.67
2022-10-04T02:09:09.906Z,7.67
2022-10-04T02:11:37.868Z,7.00
2022-10-04T02:14:05.664Z,6.00
2022-10-04T02:16:36.275Z,7.00
2022-10-04T02:19:04.621Z,7.00
2022-10-04T02:21:31.574Z,6.00
2022-10-04T02:23:58.492Z,7.33
2022-10-04T02:26:25.568Z,7.00
2022-10-04T02:28:52.502Z,4.00
2022-10-04T02:31:40.545Z,6.00
2022-10-04T02:34:07.801Z,8.00
2022-10-04T02:36:34.810Z,6.33
2022-10-04T02:39:07.922Z,8.00
2022-10-04T02:41:38.167Z,6.00
2022-10-04T02:44:18.216Z,6.00
2022-10-04T02:46:50.437Z,6.33
2022-10-04T02:49:38.389Z,6.00
2022-10-04T02:52:08.321Z,4.67
2022-10-04T02:54:52.969Z,6.00
2022-10-04T02:57:20.949Z,6.00
2022-10-04T02:59:48.268Z,6.00
2022-10-04T03:02:33.141Z,5.67
2022-10-04T03:05:05.448Z,6.67
2022-10-04T03:07:33.322Z,7.00
2022-10-04T03:10:00.716Z,6.33
2022-10-04T03:12:27.681Z,5.67
2022-10-04T03:14:54.952Z,6.00
2022-10-04T03:17:21.920Z,5.00
2022-10-04T03:19:49.215Z,6.00
2022-10-04T03:22:16.120Z,6.33
2022-10-04T03:24:47.723Z,6.00
2022-10-04T03:27:26.585Z,5.67
2022-10-04T03:29:58.913Z,5.00
2022-10-04T03:32:26.227Z,7.00
2022-10-04T03:34:57.743Z,5.00
2022-10-04T03:37:24.949Z,6.00
2022-10-04T03:39:55.518Z,5.33
2022-10-04T03:42:24.595Z,6.00
2022-10-04T03:44:54.325Z,5.00
2022-10-04T03:47:32.707Z,4.00
2022-10-04T03:50:03.296Z,5.00
2022-10-04T03:52:34.558Z,5.00
2022-10-04T03:55:02.849Z,6.25
2022-10-04T03:57:30.083Z,5.00
2022-10-04T03:59:57.752Z,5.33
2022-10-04T04:02:33.557Z,6.00
2022-10-04T04:05:53.927Z,6.00
2022-10-04T04:08:37.195Z,5.00
2022-10-04T04:11:05.346Z,5.00
2022-10-04T04:13:45.487Z,5.00
2022-10-04T04:16:12.518Z,5.67
2022-10-04T04:18:42.174Z,5.33
2022-10-04T04:21:09.178Z,5.33
2022-10-04T04:23:40.110Z,4.00
2022-10-04T04:26:31.649Z,4.00
2022-10-04T04:29:18.715Z,4.33
2022-10-04T04:31:54.528Z,5.00
2022-10-04T04:34:25.034Z,5.00
2022-10-04T04:36:56.844Z,3.00
2022-10-04T04:39:44.030Z,5.00
2022-10-04T04:42:10.855Z,5.00
2022-10-04T04:44:52.296Z,5.00
2022-10-04T04:47:34.213Z,6.00
2022-10-04T04:50:19.021Z,6.00
2022-10-04T04:52:52.552Z,4.67
2022-10-04T04:55:22.203Z,5.00
2022-10-04T04:57:54.079Z,5.00
2022-10-04T05:00:23.876Z,5.33
2022-10-04T05:02:56.235Z,5.00
2022-10-04T05:05:35.529Z,3.67
2022-10-04T05:08:11.022Z,5.00
2022-10-04T05:10:38.264Z,5.00
2022-10-04T05:13:06.795Z,5.00
2022-10-04T05:15:37.458Z,6.00
2022-10-04T05:18:27.001Z,5.67
2022-10-04T05:20:53.961Z,3.00
2022-10-04T05:23:21.090Z,5.00
2022-10-04T05:25:48.485Z,4.00
2022-10-04T05:28:15.555Z,5.67
2022-10-04T05:30:42.514Z,4.67
2022-10-04T05:33:14.875Z,3.00
2022-10-04T05:35:58.015Z,4.00
2022-10-04T05:38:43.377Z,5.33
2022-10-04T05:41:15.337Z,4.00
2022-10-04T05:43:46.451Z,5.00
2022-10-04T05:46:19.432Z,4.33
2022-10-04T05:48:47.616Z,4.00
2022-10-04T05:51:30.767Z,4.00
2022-10-04T05:53:59.977Z,3.33
2022-10-04T05:57:00.197Z,4.00
2022-10-04T05:59:35.422Z,4.33
2022-10-04T06:02:39.463Z,5.00
2022-10-04T06:05:12.602Z,3.50
2022-10-04T06:07:43.682Z,4.00
2022-10-04T06:10:27.349Z,4.67
2022-10-04T06:13:35.961Z,3.00
2022-10-04T06:16:12.506Z,3.00
2022-10-04T06:18:45.714Z,3.33
2022-10-04T06:21:32.351Z,4.00
2022-10-04T06:24:01.996Z,4.00
2022-10-04T06:26:34.162Z,4.00
2022-10-04T06:29:03.697Z,3.67
2022-10-04T06:32:14.915Z,4.00
2022-10-04T06:34:48.390Z,3.33
2022-10-04T06:37:36.753Z,4.00
2022-10-04T06:40:22.217Z,3.00
2022-10-04T06:42:58.007Z,4.00
2022-10-04T06:45:49.918Z,3.00
2022-10-04T06:48:16.792Z,4.00
2022-10-04T06:51:01.135Z,3.33
2022-10-04T06:53:33.756Z,4.00
2022-10-04T06:56:21.747Z,3.33
2022-10-04T06:59:14.082Z,3.00
2022-10-04T07:01:52.087Z,4.00
2022-10-04T07:04:28.886Z,4.00
2022-10-04T07:07:27.030Z,4.00
2022-10-04T07:10:41.045Z,3.33
2022-10-04T07:13:16.857Z,3.33
2022-10-04T07:15:48.213Z,3.00
2022-10-04T07:18:19.484Z,3.33
2022-10-04T07:20:46.425Z,3.00
2022-10-04T07:23:14.644Z,3.67
2022-10-04T07:25:45.801Z,4.00
2022-10-04T07:28:36.228Z,4.00
2022-10-04T07:31:24.714Z,4.00
2022-10-04T07:33:54.856Z,4.00
2022-10-04T07:36:24.491Z,3.00
2022-10-04T07:38:53.779Z,2.33
2022-10-04T07:41:37.645Z,3.00
2022-10-04T07:44:16.337Z,4.00
2022-10-04T07:46:43.209Z,3.00
2022-10-04T07:49:18.268Z,3.00
2022-10-04T07:52:08.456Z,3.00
2022-10-04T07:55:18.858Z,3.67
2022-10-04T07:58:00.142Z,2.00
2022-10-04T08:00:49.845Z,3.00
2022-10-04T08:03:47.382Z,3.33
2022-10-04T08:06:29.138Z,3.00
2022-10-04T08:09:07.932Z,3.00
2022-10-04T08:11:52.808Z,3.00
2022-10-04T08:14:34.615Z,3.00
2022-10-04T08:17:15.398Z,3.00
2022-10-04T08:20:01.281Z,3.00
2022-10-04T08:22:34.668Z,3.33
2022-10-04T08:25:38.767Z,2.00
2022-10-04T08:28:27.054Z,3.00
2022-10-04T08:31:18.611Z,3.00
2022-10-04T08:33:53.588Z,4.00
2022-10-04T08:36:48.238Z,3.00
2022-10-04T08:39:49.444Z,3.67
2022-10-04T08:42:24.769Z,2.67
2022-10-04T08:45:14.852Z,3.00
2022-10-04T08:48:24.870Z,3.00
2022-10-04T08:51:23.114Z,2.33
2022-10-04T08:53:57.799Z,3.00
2022-10-04T08:57:02.136Z,3.00
2022-10-04T09:00:04.743Z,3.00
2022-10-04T09:03:05.505Z,3.33
2022-10-04T09:05:41.193Z,3.00
2022-10-04T09:08:36.125Z,2.67
2022-10-04T09:11:21.575Z,2.00
2022-10-04T09:14:03.599Z,3.00
2022-10-04T09:17:09.513Z,2.00
2022-10-04T09:20:33.426Z,2.00
2022-10-04T09:23:07.998Z,2.67
2022-10-04T09:25:52.645Z,3.00
2022-10-04T09:29:05.215Z,2.33
2022-10-04T09:32:11.117Z,2.00
2022-10-04T09:35:14.707Z,1.00
2022-10-04T09:38:15.373Z,2.00
2022-10-04T09:41:20.120Z,2.00
2022-10-04T09:44:02.208Z,3.00
2022-10-04T09:46:47.698Z,3.00
2022-10-04T09:49:17.616Z,2.00
2022-10-04T09:52:23.171Z,2.00
2022-10-04T09:55:05.244Z,2.67
2022-10-04T09:58:02.257Z,1.00
2022-10-04T10:00:33.608Z,2.00
2022-10-04T10:03:07.117Z,2.33
2022-10-04T10:05:58.995Z,2.00
2022-10-04T10:08:44.218Z,3.00
2022-10-04T10:11:51.016Z,2.67
2022-10-04T10:14:40.231Z,3.00
2022-10-04T10:17:40.296Z,2.00
2022-10-04T10:20:10.232Z,2.00
2022-10-04T10:23:10.763Z,2.00
2022-10-04T10:25:41.858Z,2.00
2022-10-04T10:28:42.801Z,2.00
2022-10-04T10:31:48.014Z,3.00
2022-10-04T10:34:33.404Z,2.00
2022-10-04T10:37:31.221Z,2.00
2022-10-04T10:40:26.034Z,2.00
2022-10-04T10:43:18.685Z,2.00
2022-10-04T10:45:56.912Z,2.00
2022-10-04T10:48:50.053Z,0.00
2022-10-04T10:51:20.780Z,2.00
2022-10-04T10:54:05.895Z,2.00
2022-10-04T10:56:53.083Z,2.00
2022-10-04T10:59:34.690Z,2.33
2022-10-04T11:02:20.048Z,2.00
2022-10-04T11:05:15.029Z,2.67
2022-10-04T11:08:09.501Z,2.00
2022-10-04T11:10:39.246Z,1.00
2022-10-04T11:13:18.949Z,2.00
2022-10-04T11:16:08.079Z,1.33
2022-10-04T11:18:37.720Z,2.00
2022-10-04T11:21:25.973Z,2.00
2022-10-04T11:24:14.341Z,2.00
2022-10-04T11:26:48.219Z,2.00
2022-10-04T11:29:40.148Z,1.00
2022-10-04T11:32:39.825Z,2.00
2022-10-04T11:35:24.779Z,1.67
2022-10-04T11:38:09.625Z,2.00
2022-10-04T11:40:44.045Z,2.00
2022-10-04T11:43:38.336Z,2.00
2022-10-04T11:46:18.326Z,2.00
2022-10-04T11:49:06.141Z,1.00
2022-10-04T11:51:50.190Z,2.00
2022-10-04T11:54:24.612Z,2.00
2022-10-04T11:57:28.779Z,1.00
2022-10-04T12:00:09.079Z,2.00
2022-10-04T12:02:44.878Z,2.00
2022-10-04T12:05:23.756Z,1.00
2022-10-04T12:07:57.046Z,2.00
2022-10-04T12:10:37.966Z,1.00
2022-10-04T12:13:27.512Z,2.33
2022-10-04T12:16:13.113Z,1.67
2022-10-04T12:18:58.505Z,2.00
2022-10-04T12:21:30.829Z,2.00
2022-10-04T12:24:03.650Z,1.00
2022-10-04T12:26:52.913Z,2.00
2022-10-04T12:29:56.731Z,2.00
2022-10-04T12:32:48.588Z,2.00
2022-10-04T12:35:15.468Z,1.00
2022-10-04T12:38:08.979Z,2.00
2022-10-04T12:40:54.463Z,1.00
2022-10-04T12:43:56.870Z,1.00
2022-10-04T12:46:45.309Z,2.00
2022-10-04T12:49:17.566Z,2.00
2022-10-04T12:52:06.510Z,2.00
2022-10-04T12:54:44.824Z,1.33
2022-10-04T12:57:27.809Z,2.00
2022-10-04T13:00:19.810Z,1.00
2022-10-04T13:03:05.236Z,1.33
2022-10-04T13:05:47.440Z,1.33
2022-10-04T13:08:22.759Z,2.00
2022-10-04T13:11:01.059Z,1.00
2022-10-04T13:13:43.392Z,2.00
2022-10-04T13:19:32.938Z,2.00
2022-10-04T13:22:37.631Z,1.67
2022-10-04T13:25:42.264Z,2.00
2022-10-04T13:28:23.388Z,1.00
2022-10-04T13:31:05.057Z,2.00
2022-10-04T13:33:50.590Z,2.00
2022-10-04T13:37:01.504Z,2.00
2022-10-04T13:39:52.545Z,1.00
2022-10-04T13:42:40.465Z,1.00
2022-10-04T13:45:29.487Z,1.67
2022-10-04T13:48:19.434Z,2.00
2022-10-04T13:50:54.398Z,1.67
2022-10-04T13:53:58.573Z,1.00
2022-10-04T13:56:50.225Z,1.33
2022-10-04T13:59:44.689Z,2.33
2022-10-04T14:02:50.082Z,1.00
2022-10-04T14:05:40.851Z,2.00
2022-10-04T14:08:29.395Z,1.00
2022-10-04T14:11:36.905Z,1.00
2022-10-04T14:14:23.088Z,1.00
2022-10-04T14:17:24.142Z,2.00
2022-10-04T14:20:19.233Z,1.00
2022-10-04T14:23:08.736Z,1.00
2022-10-04T14:26:12.945Z,1.00
2022-10-04T14:29:06.519Z,1.00
2022-10-04T14:31:37.212Z,1.00
2022-10-04T14:34:26.990Z,2.00
2022-10-04T14:37:19.247Z,1.00
2022-10-04T14:40:15.601Z,1.00
2022-10-04T14:43:00.256Z,2.00
2022-10-04T14:45:35.422Z,1.00
2022-10-04T14:48:36.147Z,2.00
2022-10-04T14:51:38.309Z,1.00
2022-10-04T14:54:23.215Z,1.00
2022-10-04T14:56:59.539Z,1.00
2022-10-04T14:59:38.627Z,1.00
2022-10-04T15:02:17.664Z,1.00
2022-10-04T15:05:05.526Z,1.33
2022-10-04T15:07:47.020Z,1.00
2022-10-04T15:10:19.329Z,1.00
2022-10-04T15:13:20.777Z,1.33
2022-10-04T15:16:14.465Z,1.00
2022-10-04T15:18:54.357Z,1.00
2022-10-04T15:21:47.413Z,1.00
2022-10-04T15:24:16.899Z,0.67
2022-10-04T15:27:18.414Z,1.00
2022-10-04T15:30:00.194Z,1.00
2022-10-04T15:32:28.224Z,1.00
2022-10-04T15:35:25.814Z,1.00
2022-10-04T15:37:58.498Z,1.00
2022-10-04T15:40:27.958Z,1.00
2022-10-04T15:43:04.139Z,0.33
2022-10-04T15:46:03.094Z,1.00
2022-10-04T15:48:48.910Z,1.00
2022-10-04T15:51:53.371Z,1.00
2022-10-04T15:54:42.973Z,1.00
2022-10-04T15:57:42.235Z,0.00
2022-10-04T16:00:15.850Z,1.00
2022-10-04T16:03:04.199Z,0.00
2022-10-04T16:05:31.117Z,1.00
2022-10-04T16:08:11.043Z,2.00
2022-10-04T16:10:52.642Z,2.00
2022-10-04T16:13:48.084Z,2.00
2022-10-04T16:16:18.275Z,1.00
2022-10-04T16:19:03.423Z,2.33
2022-10-04T16:21:48.614Z,1.67
2022-10-04T16:24:18.550Z,3.00
2022-10-04T16:26:45.481Z,3.00
2022-10-04T16:29:38.472Z,2.00
2022-10-04T16:32:14.252Z,2.33
2022-10-04T16:35:05.876Z,2.00
2022-10-04T16:37:39.013Z,3.00
2022-10-04T16:40:31.631Z,2.00
2022-10-04T16:43:04.925Z,3.33
2022-10-04T16:46:10.158Z,4.00
2022-10-04T16:48:53.594Z,3.33
2022-10-04T16:51:40.761Z,3.00
2022-10-04T16:54:36.619Z,8.00
2022-10-04T16:57:22.731Z,9.00
2022-10-04T16:59:51.930Z,9.00
2022-10-04T17:02:28.781Z,10.00
2022-10-04T17:05:25.735Z,9.33
2022-10-04T17:07:52.595Z,11.00
2022-10-04T17:10:48.616Z,9.00
2022-10-04T17:13:35.210Z,7.00
2022-10-04T17:16:15.492Z,5.67
2022-10-04T17:18:55.640Z,7.00
2022-10-04T17:21:30.522Z,7.00
2022-10-04T17:24:03.641Z,7.33
2022-10-04T17:26:44.974Z,8.00
2022-10-04T17:29:18.398Z,7.33
2022-10-04T17:32:31.758Z,7.00
2022-10-04T17:35:22.989Z,8.00
2022-10-04T17:37:56.147Z,7.00
2022-10-04T17:40:54.318Z,6.33
2022-10-04T17:43:28.609Z,9.00
2022-10-04T17:46:22.576Z,7.00
2022-10-04T17:49:30.836Z,8.00
2022-10-04T17:52:16.075Z,7.67
2022-10-04T17:55:09.408Z,6.00
2022-10-04T17:58:02.345Z,7.67
2022-10-04T18:00:29.528Z,8.00
2022-10-04T18:03:19.487Z,8.00
2022-10-04T18:06:02.434Z,7.00
2022-10-04T18:08:44.256Z,5.00
2022-10-04T18:11:44.400Z,9.00
2022-10-04T18:14:31.250Z,9.67
2022-10-04T18:17:01.032Z,11.33
2022-10-04T18:19:37.198Z,11.00
2022-10-04T18:22:17.250Z,11.33
2022-10-04T18:24:45.013Z,12.67
2022-10-04T18:27:22.682Z,12.50
2022-10-04T18:30:01.813Z,11.67
2022-10-04T18:32:28.652Z,16.25
2022-10-04T18:34:56.536Z,17.50
2022-10-04T18:37:38.952Z,18.50
2022-10-04T18:40:16.470Z,19.25
2022-10-04T18:42:47.750Z,20.00
2022-10-04T18:45:27.568Z,17.00
2022-10-04T18:47:55.177Z,19.75
2022-10-04T18:50:43.799Z,19.00
2022-10-04T18:53:29.822Z,17.25
2022-10-04T18:55:58.153Z,18.25
2022-10-04T18:58:55.996Z,12.50
2022-10-04T19:01:47.320Z,18.00
2022-10-04T19:04:17.571Z,16.00
2022-10-04T19:06:45.719Z,18.00
2022-10-04T19:09:27.231Z,17.00
2022-10-04T19:12:09.239Z,15.00
2022-10-04T19:14:45.108Z,17.25
2022-10-04T19:17:28.742Z,18.00
2022-10-04T19:20:18.737Z,17.50
2022-10-04T19:23:01.511Z,17.25
2022-10-04T19:25:31.605Z,17.25
2022-10-04T19:28:09.201Z,17.75
2022-10-04T19:30:54.527Z,17.00
2022-10-04T19:33:50.625Z,17.50
2022-10-04T19:36:25.747Z,17.00
2022-10-04T19:39:12.310Z,18.50
2022-10-04T19:41:51.489Z,17.75
2022-10-04T19:44:37.020Z,17.25
2022-10-04T19:47:09.757Z,16.00
2022-10-04T19:49:42.705Z,18.25
2022-10-04T19:52:30.890Z,17.75
2022-10-04T19:55:00.743Z,16.75
2022-10-04T19:57:37.873Z,17.75
2022-10-04T20:00:12.902Z,16.50
2022-10-04T20:02:48.409Z,17.00
2022-10-04T20:05:20.260Z,18.75
2022-10-04T20:07:51.323Z,17.00
2022-10-04T20:10:35.186Z,16.00
2022-10-04T20:13:11.020Z,13.25
2022-10-04T20:15:40.660Z,16.75
2022-10-04T20:18:32.340Z,16.75
2022-10-04T20:21:00.305Z,16.00
2022-10-04T20:23:41.937Z,17.00
2022-10-04T20:26:09.780Z,17.25
2022-10-04T20:28:42.125Z,16.50
2022-10-04T20:31:23.610Z,13.50
2022-10-04T20:33:50.846Z,16.00
2022-10-04T20:36:44.092Z,17.00
2022-10-04T20:39:34.428Z,16.00
2022-10-04T20:42:20.536Z,15.50
2022-10-04T20:44:54.456Z,17.00
2022-10-04T20:47:40.241Z,14.00
2022-10-04T20:50:10.118Z,13.00
2022-10-04T20:52:37.131Z,15.25
2022-10-04T20:55:11.753Z,15.75
2022-10-04T20:57:40.601Z,16.50
2022-10-04T21:00:23.572Z,16.00
2022-10-04T21:02:50.619Z,17.00
2022-10-04T21:05:24.929Z,14.00
2022-10-04T21:08:24.163Z,15.25
2022-10-04T21:11:19.859Z,15.50
2022-10-04T21:13:54.401Z,15.00
2022-10-04T21:16:38.770Z,17.25
2022-10-04T21:19:36.095Z,18.25
2022-10-04T21:22:04.261Z,15.00
2022-10-04T21:24:41.141Z,15.25
2022-10-04T21:27:10.803Z,16.75
2022-10-04T21:29:38.296Z,17.00
2022-10-04T21:32:05.449Z,17.00
2022-10-04T21:34:52.345Z,16.25
2022-10-04T21:37:19.428Z,18.25
2022-10-04T21:39:46.348Z,7.25
2022-10-04T21:42:13.316Z,16.00
2022-10-04T21:44:40.287Z,15.75
2022-10-04T21:47:07.225Z,12.00
2022-10-04T21:49:34.708Z,16.00
2022-10-04T21:52:02.076Z,16.25
2022-10-04T21:54:29.019Z,17.25
2022-10-04T21:56:55.894Z,14.25
2022-10-04T21:59:22.920Z,15.00
2022-10-04T22:01:49.876Z,17.50
2022-10-04T22:04:16.857Z,14.00
2022-10-04T22:06:44.194Z,17.50
2022-10-04T22:09:11.777Z,15.00
2022-10-04T22:11:38.725Z,17.00
2022-10-04T22:14:05.712Z,15.00
2022-10-04T22:16:32.751Z,15.50
2022-10-04T22:18:59.718Z,15.00
2022-10-04T22:21:26.684Z,15.00
2022-10-04T22:23:53.564Z,15.00
2022-10-04T22:26:21.938Z,15.00
2022-10-04T22:28:53.765Z,16.00
2022-10-04T22:31:29.799Z,17.25
2022-10-04T22:33:56.859Z,12.75
2022-10-04T22:36:27.947Z,15.50
2022-10-04T22:39:17.266Z,16.00
2022-10-04T22:41:48.712Z,13.25
2022-10-04T22:44:23.802Z,16.00
2022-10-04T22:46:55.176Z,13.50
2022-10-04T22:49:24.404Z,14.50
2022-10-04T22:51:52.215Z,15.50
2022-10-04T22:54:20.980Z,15.00
2022-10-04T22:56:48.290Z,14.75
2022-10-04T22:59:16.916Z,13.00
2022-10-04T23:01:44.065Z,15.00
2022-10-04T23:04:24.538Z,14.00
2022-10-04T23:06:51.915Z,13.50
2022-10-04T23:09:19.162Z,15.00
2022-10-04T23:11:46.109Z,15.00
2022-10-04T23:14:13.152Z,13.00
2022-10-04T23:16:40.143Z,16.75
2022-10-04T23:19:09.867Z,14.50
2022-10-04T23:21:38.039Z,15.00
2022-10-04T23:24:16.793Z,11.75
2022-10-04T23:26:45.744Z,11.50
2022-10-04T23:29:37.023Z,16.50
2022-10-04T23:32:11.327Z,14.25
2022-10-04T23:34:39.129Z,14.75
2022-10-04T23:37:20.831Z,14.00
2022-10-04T23:39:47.807Z,13.75
2022-10-04T23:42:19.832Z,14.00
2022-10-04T23:44:50.415Z,13.00
2022-10-04T23:47:20.550Z,13.50
2022-10-04T23:49:48.678Z,16.50
2022-10-04T23:52:24.697Z,14.00
2022-10-04T23:54:52.468Z,12.25
2022-10-04T23:57:24.208Z,14.50
2022-10-04T23:59:51.486Z,14.75
